sensor_id;sensor_type;location;lat;lon;timestamp;pressure;altitude;pressure_sealevel;temperature
12061;BMP180;6091;51.432;6.880;2022-12-07T00:01:43;100909.00;;;21.70
12061;BMP180;6091;51.432;6.880;2022-12-07T00:04:13;100912.00;;;21.80
12061;BMP180;6091;51.432;6.880;2022-12-07T00:06:44;100914.00;;;21.70
12061;BMP180;6091;51.432;6.880;2022-12-07T00:09:16;100910.00;;;21.70
12061;BMP180;6091;51.432;6.880;2022-12-07T00:11:44;100902.00;;;21.70
12061;BMP180;6091;51.432;6.880;2022-12-07T00:14:15;100908.00;;;21.70
12061;BMP180;6091;51.432;6.880;2022-12-07T00:16:44;100906.00;;;21.70
12061;BMP180;6091;51.432;6.880;2022-12-07T00:19:13;100910.00;;;21.70
12061;BMP180;6091;51.432;6.880;2022-12-07T00:21:43;100903.00;;;21.70
12061;BMP180;6091;51.432;6.880;2022-12-07T00:24:11;100899.00;;;21.70
12061;BMP180;6091;51.432;6.880;2022-12-07T00:26:41;100901.00;;;21.70
12061;BMP180;6091;51.432;6.880;2022-12-07T00:29:15;100901.00;;;21.70
12061;BMP180;6091;51.432;6.880;2022-12-07T00:31:43;100900.00;;;21.70
12061;BMP180;6091;51.432;6.880;2022-12-07T00:34:19;100893.00;;;21.70
12061;BMP180;6091;51.432;6.880;2022-12-07T00:36:48;100901.00;;;21.70
12061;BMP180;6091;51.432;6.880;2022-12-07T00:39:15;100893.00;;;21.70
12061;BMP180;6091;51.432;6.880;2022-12-07T00:41:42;100881.00;;;21.60
12061;BMP180;6091;51.432;6.880;2022-12-07T00:44:09;100887.00;;;21.60
12061;BMP180;6091;51.432;6.880;2022-12-07T00:46:36;100881.00;;;21.60
12061;BMP180;6091;51.432;6.880;2022-12-07T00:49:03;100884.00;;;21.60
12061;BMP180;6091;51.432;6.880;2022-12-07T00:51:30;100888.00;;;21.60
12061;BMP180;6091;51.432;6.880;2022-12-07T00:53:57;100885.00;;;21.60
12061;BMP180;6091;51.432;6.880;2022-12-07T00:56:27;100878.00;;;21.60
12061;BMP180;6091;51.432;6.880;2022-12-07T00:58:59;100881.00;;;21.60
12061;BMP180;6091;51.432;6.880;2022-12-07T01:01:30;100873.00;;;21.60
12061;BMP180;6091;51.432;6.880;2022-12-07T01:03:58;100883.00;;;21.60
12061;BMP180;6091;51.432;6.880;2022-12-07T01:06:28;100881.00;;;21.60
12061;BMP180;6091;51.432;6.880;2022-12-07T01:08:56;100883.00;;;21.60
12061;BMP180;6091;51.432;6.880;2022-12-07T01:11:27;100878.00;;;21.60
12061;BMP180;6091;51.432;6.880;2022-12-07T01:13:57;100880.00;;;21.60
12061;BMP180;6091;51.432;6.880;2022-12-07T01:16:28;100875.00;;;21.60
12061;BMP180;6091;51.432;6.880;2022-12-07T01:18:57;100880.00;;;21.60
12061;BMP180;6091;51.432;6.880;2022-12-07T01:21:31;100878.00;;;21.50
12061;BMP180;6091;51.432;6.880;2022-12-07T01:24:05;100871.00;;;21.50
12061;BMP180;6091;51.432;6.880;2022-12-07T01:26:33;100872.00;;;21.50
12061;BMP180;6091;51.432;6.880;2022-12-07T01:29:00;100876.00;;;21.50
12061;BMP180;6091;51.432;6.880;2022-12-07T01:31:28;100875.00;;;21.50
12061;BMP180;6091;51.432;6.880;2022-12-07T01:33:58;100876.00;;;21.50
12061;BMP180;6091;51.432;6.880;2022-12-07T01:36:31;100880.00;;;21.50
12061;BMP180;6091;51.432;6.880;2022-12-07T01:39:02;100887.00;;;21.50
12061;BMP180;6091;51.432;6.880;2022-12-07T01:41:34;100885.00;;;21.50
12061;BMP180;6091;51.432;6.880;2022-12-07T01:47:06;100888.00;;;21.50
12061;BMP180;6091;51.432;6.880;2022-12-07T01:49:48;100876.00;;;21.50
12061;BMP180;6091;51.432;6.880;2022-12-07T01:52:33;100875.00;;;21.50
12061;BMP180;6091;51.432;6.880;2022-12-07T01:55:09;100878.00;;;21.40
12061;BMP180;6091;51.432;6.880;2022-12-07T01:57:43;100879.00;;;21.50
12061;BMP180;6091;51.432;6.880;2022-12-07T02:00:12;100876.00;;;21.40
12061;BMP180;6091;51.432;6.880;2022-12-07T02:02:55;100878.00;;;21.50
12061;BMP180;6091;51.432;6.880;2022-12-07T02:05:25;100867.00;;;21.40
12061;BMP180;6091;51.432;6.880;2022-12-07T02:07:56;100859.00;;;21.40
12061;BMP180;6091;51.432;6.880;2022-12-07T02:10:27;100866.00;;;21.40
12061;BMP180;6091;51.432;6.880;2022-12-07T02:13:04;100861.00;;;21.40
12061;BMP180;6091;51.432;6.880;2022-12-07T02:21:21;100861.00;;;21.40
12061;BMP180;6091;51.432;6.880;2022-12-07T02:30:10;100869.00;;;21.30
12061;BMP180;6091;51.432;6.880;2022-12-07T02:41:15;100870.00;;;21.30
12061;BMP180;6091;51.432;6.880;2022-12-07T02:43:50;100872.00;;;21.30
12061;BMP180;6091;51.432;6.880;2022-12-07T02:46:26;100875.00;;;21.30
12061;BMP180;6091;51.432;6.880;2022-12-07T02:48:55;100870.00;;;21.30
12061;BMP180;6091;51.432;6.880;2022-12-07T02:51:22;100851.00;;;21.30
12061;BMP180;6091;51.432;6.880;2022-12-07T02:53:49;100866.00;;;21.30
12061;BMP180;6091;51.432;6.880;2022-12-07T03:11:06;100875.00;;;21.20
12061;BMP180;6091;51.432;6.880;2022-12-07T03:14:15;100871.00;;;21.20
12061;BMP180;6091;51.432;6.880;2022-12-07T03:16:58;100871.00;;;21.20
12061;BMP180;6091;51.432;6.880;2022-12-07T03:19:27;100868.00;;;21.20
12061;BMP180;6091;51.432;6.880;2022-12-07T03:22:03;100866.00;;;21.20
12061;BMP180;6091;51.432;6.880;2022-12-07T03:24:43;100872.00;;;21.20
12061;BMP180;6091;51.432;6.880;2022-12-07T03:27:20;100868.00;;;21.20
12061;BMP180;6091;51.432;6.880;2022-12-07T03:30:10;100880.00;;;21.20
12061;BMP180;6091;51.432;6.880;2022-12-07T03:33:03;100881.00;;;21.20
12061;BMP180;6091;51.432;6.880;2022-12-07T03:35:47;100861.00;;;21.20
12061;BMP180;6091;51.432;6.880;2022-12-07T03:38:27;100864.00;;;21.20
12061;BMP180;6091;51.432;6.880;2022-12-07T03:41:20;100870.00;;;21.20
12061;BMP180;6091;51.432;6.880;2022-12-07T03:43:49;100851.00;;;21.20
12061;BMP180;6091;51.432;6.880;2022-12-07T03:49:18;100860.00;;;21.10
12061;BMP180;6091;51.432;6.880;2022-12-07T03:54:43;100862.00;;;21.10
12061;BMP180;6091;51.432;6.880;2022-12-07T03:57:12;100867.00;;;21.10
12061;BMP180;6091;51.432;6.880;2022-12-07T03:59:41;100872.00;;;21.10
12061;BMP180;6091;51.432;6.880;2022-12-07T04:02:13;100868.00;;;21.10
12061;BMP180;6091;51.432;6.880;2022-12-07T04:04:42;100868.00;;;21.10
12061;BMP180;6091;51.432;6.880;2022-12-07T04:07:10;100859.00;;;21.10
12061;BMP180;6091;51.432;6.880;2022-12-07T04:09:37;100855.00;;;21.10
12061;BMP180;6091;51.432;6.880;2022-12-07T04:12:04;100856.00;;;21.10
12061;BMP180;6091;51.432;6.880;2022-12-07T04:14:31;100857.00;;;21.10
12061;BMP180;6091;51.432;6.880;2022-12-07T04:16:59;100857.00;;;21.10
12061;BMP180;6091;51.432;6.880;2022-12-07T04:19:32;100849.00;;;21.10
12061;BMP180;6091;51.432;6.880;2022-12-07T04:22:03;100861.00;;;21.10
12061;BMP180;6091;51.432;6.880;2022-12-07T04:24:30;100868.00;;;21.10
12061;BMP180;6091;51.432;6.880;2022-12-07T04:26:58;100853.00;;;21.10
12061;BMP180;6091;51.432;6.880;2022-12-07T04:29:27;100852.00;;;21.10
12061;BMP180;6091;51.432;6.880;2022-12-07T04:31:54;100852.00;;;21.10
12061;BMP180;6091;51.432;6.880;2022-12-07T04:34:21;100849.00;;;21.10
12061;BMP180;6091;51.432;6.880;2022-12-07T04:36:49;100851.00;;;21.10
12061;BMP180;6091;51.432;6.880;2022-12-07T04:39:26;100856.00;;;21.10
12061;BMP180;6091;51.432;6.880;2022-12-07T04:41:53;100858.00;;;21.10
12061;BMP180;6091;51.432;6.880;2022-12-07T04:44:22;100850.00;;;21.10
12061;BMP180;6091;51.432;6.880;2022-12-07T04:46:49;100851.00;;;21.10
12061;BMP180;6091;51.432;6.880;2022-12-07T04:49:18;100854.00;;;21.10
12061;BMP180;6091;51.432;6.880;2022-12-07T04:51:47;100862.00;;;21.10
12061;BMP180;6091;51.432;6.880;2022-12-07T04:54:15;100860.00;;;21.10
12061;BMP180;6091;51.432;6.880;2022-12-07T04:56:43;100850.00;;;21.00
12061;BMP180;6091;51.432;6.880;2022-12-07T04:59:13;100858.00;;;21.00
12061;BMP180;6091;51.432;6.880;2022-12-07T05:01:41;100862.00;;;21.00
12061;BMP180;6091;51.432;6.880;2022-12-07T05:04:09;100852.00;;;21.00
12061;BMP180;6091;51.432;6.880;2022-12-07T05:06:36;100855.00;;;21.00
12061;BMP180;6091;51.432;6.880;2022-12-07T05:09:04;100848.00;;;21.00
12061;BMP180;6091;51.432;6.880;2022-12-07T05:11:33;100852.00;;;21.00
12061;BMP180;6091;51.432;6.880;2022-12-07T05:14:20;100857.00;;;21.00
12061;BMP180;6091;51.432;6.880;2022-12-07T05:16:50;100848.00;;;21.00
12061;BMP180;6091;51.432;6.880;2022-12-07T05:19:18;100847.00;;;21.00
12061;BMP180;6091;51.432;6.880;2022-12-07T05:21:46;100839.00;;;21.00
12061;BMP180;6091;51.432;6.880;2022-12-07T05:24:15;100858.00;;;21.00
12061;BMP180;6091;51.432;6.880;2022-12-07T05:26:44;100860.00;;;21.00
12061;BMP180;6091;51.432;6.880;2022-12-07T05:29:14;100853.00;;;21.00
12061;BMP180;6091;51.432;6.880;2022-12-07T05:31:42;100852.00;;;21.00
12061;BMP180;6091;51.432;6.880;2022-12-07T05:34:09;100856.00;;;20.90
12061;BMP180;6091;51.432;6.880;2022-12-07T05:36:37;100856.00;;;21.00
12061;BMP180;6091;51.432;6.880;2022-12-07T05:39:04;100844.00;;;20.90
12061;BMP180;6091;51.432;6.880;2022-12-07T05:41:31;100849.00;;;20.90
12061;BMP180;6091;51.432;6.880;2022-12-07T05:44:16;100835.00;;;20.90
12061;BMP180;6091;51.432;6.880;2022-12-07T05:46:43;100844.00;;;20.90
12061;BMP180;6091;51.432;6.880;2022-12-07T05:49:10;100845.00;;;20.90
12061;BMP180;6091;51.432;6.880;2022-12-07T05:51:37;100839.00;;;20.90
12061;BMP180;6091;51.432;6.880;2022-12-07T05:54:04;100844.00;;;20.90
12061;BMP180;6091;51.432;6.880;2022-12-07T05:56:31;100827.00;;;20.90
12061;BMP180;6091;51.432;6.880;2022-12-07T05:58:58;100847.00;;;20.90
12061;BMP180;6091;51.432;6.880;2022-12-07T06:01:43;100833.00;;;20.90
12061;BMP180;6091;51.432;6.880;2022-12-07T06:04:10;100837.00;;;20.90
12061;BMP180;6091;51.432;6.880;2022-12-07T06:06:37;100835.00;;;20.90
12061;BMP180;6091;51.432;6.880;2022-12-07T06:09:05;100832.00;;;20.90
12061;BMP180;6091;51.432;6.880;2022-12-07T06:11:32;100837.00;;;20.90
12061;BMP180;6091;51.432;6.880;2022-12-07T06:14:17;100834.00;;;20.90
12061;BMP180;6091;51.432;6.880;2022-12-07T06:16:44;100835.00;;;20.90
12061;BMP180;6091;51.432;6.880;2022-12-07T06:19:11;100836.00;;;20.90
12061;BMP180;6091;51.432;6.880;2022-12-07T06:21:39;100846.00;;;20.90
12061;BMP180;6091;51.432;6.880;2022-12-07T06:24:06;100854.00;;;20.90
12061;BMP180;6091;51.432;6.880;2022-12-07T06:26:34;100855.00;;;20.90
12061;BMP180;6091;51.432;6.880;2022-12-07T06:29:01;100855.00;;;20.90
12061;BMP180;6091;51.432;6.880;2022-12-07T06:31:28;100856.00;;;20.90
12061;BMP180;6091;51.432;6.880;2022-12-07T06:34:03;100849.00;;;20.90
12061;BMP180;6091;51.432;6.880;2022-12-07T06:36:31;100846.00;;;20.90
12061;BMP180;6091;51.432;6.880;2022-12-07T06:38:58;100858.00;;;20.90
12061;BMP180;6091;51.432;6.880;2022-12-07T06:41:25;100860.00;;;20.90
12061;BMP180;6091;51.432;6.880;2022-12-07T06:43:52;100859.00;;;20.90
12061;BMP180;6091;51.432;6.880;2022-12-07T06:46:22;100866.00;;;20.90
12061;BMP180;6091;51.432;6.880;2022-12-07T06:48:50;100871.00;;;21.00
12061;BMP180;6091;51.432;6.880;2022-12-07T06:51:17;100868.00;;;21.10
12061;BMP180;6091;51.432;6.880;2022-12-07T06:53:44;100873.00;;;21.20
12061;BMP180;6091;51.432;6.880;2022-12-07T06:56:11;100863.00;;;21.20
12061;BMP180;6091;51.432;6.880;2022-12-07T06:58:39;100863.00;;;21.30
12061;BMP180;6091;51.432;6.880;2022-12-07T07:01:17;100860.00;;;21.40
12061;BMP180;6091;51.432;6.880;2022-12-07T07:03:45;100866.00;;;21.50
12061;BMP180;6091;51.432;6.880;2022-12-07T07:06:14;100864.00;;;21.60
12061;BMP180;6091;51.432;6.880;2022-12-07T07:08:41;100866.00;;;21.70
12061;BMP180;6091;51.432;6.880;2022-12-07T07:11:09;100868.00;;;21.80
12061;BMP180;6091;51.432;6.880;2022-12-07T07:13:37;100861.00;;;21.90
12061;BMP180;6091;51.432;6.880;2022-12-07T07:16:05;100871.00;;;22.00
12061;BMP180;6091;51.432;6.880;2022-12-07T07:18:32;100873.00;;;22.00
12061;BMP180;6091;51.432;6.880;2022-12-07T07:20:59;100866.00;;;22.10
12061;BMP180;6091;51.432;6.880;2022-12-07T07:23:27;100863.00;;;22.20
12061;BMP180;6091;51.432;6.880;2022-12-07T07:25:54;100874.00;;;22.30
12061;BMP180;6091;51.432;6.880;2022-12-07T07:28:22;100871.00;;;22.40
12061;BMP180;6091;51.432;6.880;2022-12-07T07:30:50;100872.00;;;22.50
12061;BMP180;6091;51.432;6.880;2022-12-07T07:33:17;100888.00;;;22.60
12061;BMP180;6091;51.432;6.880;2022-12-07T07:35:44;100882.00;;;22.60
12061;BMP180;6091;51.432;6.880;2022-12-07T07:38:11;100882.00;;;22.70
12061;BMP180;6091;51.432;6.880;2022-12-07T07:40:38;100874.00;;;22.80
12061;BMP180;6091;51.432;6.880;2022-12-07T07:43:05;100880.00;;;22.90
12061;BMP180;6091;51.432;6.880;2022-12-07T07:45:32;100883.00;;;23.00
12061;BMP180;6091;51.432;6.880;2022-12-07T07:47:59;100880.00;;;23.00
12061;BMP180;6091;51.432;6.880;2022-12-07T07:50:25;100894.00;;;23.10
12061;BMP180;6091;51.432;6.880;2022-12-07T07:52:53;100892.00;;;23.20
12061;BMP180;6091;51.432;6.880;2022-12-07T07:55:22;100884.00;;;23.30
12061;BMP180;6091;51.432;6.880;2022-12-07T07:57:49;100880.00;;;23.30
12061;BMP180;6091;51.432;6.880;2022-12-07T08:00:21;100883.00;;;23.40
12061;BMP180;6091;51.432;6.880;2022-12-07T08:02:51;100894.00;;;23.50
12061;BMP180;6091;51.432;6.880;2022-12-07T08:05:18;100888.00;;;23.50
12061;BMP180;6091;51.432;6.880;2022-12-07T08:07:45;100892.00;;;23.60
12061;BMP180;6091;51.432;6.880;2022-12-07T08:10:16;100894.00;;;23.60
12061;BMP180;6091;51.432;6.880;2022-12-07T08:12:43;100893.00;;;23.70
12061;BMP180;6091;51.432;6.880;2022-12-07T08:15:30;100889.00;;;23.70
12061;BMP180;6091;51.432;6.880;2022-12-07T08:17:58;100888.00;;;23.70
12061;BMP180;6091;51.432;6.880;2022-12-07T08:20:25;100897.00;;;23.80
12061;BMP180;6091;51.432;6.880;2022-12-07T08:22:53;100894.00;;;23.90
12061;BMP180;6091;51.432;6.880;2022-12-07T08:25:20;100899.00;;;24.00
12061;BMP180;6091;51.432;6.880;2022-12-07T08:27:50;100905.00;;;24.00
12061;BMP180;6091;51.432;6.880;2022-12-07T08:30:19;100905.00;;;24.00
12061;BMP180;6091;51.432;6.880;2022-12-07T08:32:47;100892.00;;;24.10
12061;BMP180;6091;51.432;6.880;2022-12-07T08:35:17;100904.00;;;24.10
12061;BMP180;6091;51.432;6.880;2022-12-07T08:37:44;100902.00;;;24.30
12061;BMP180;6091;51.432;6.880;2022-12-07T08:40:13;100896.00;;;24.30
12061;BMP180;6091;51.432;6.880;2022-12-07T08:42:42;100902.00;;;24.30
12061;BMP180;6091;51.432;6.880;2022-12-07T08:45:14;100909.00;;;24.40
12061;BMP180;6091;51.432;6.880;2022-12-07T08:47:52;100907.00;;;24.40
12061;BMP180;6091;51.432;6.880;2022-12-07T08:50:21;100910.00;;;24.40
12061;BMP180;6091;51.432;6.880;2022-12-07T08:52:55;100913.00;;;24.70
12061;BMP180;6091;51.432;6.880;2022-12-07T08:55:23;100904.00;;;24.60
12061;BMP180;6091;51.432;6.880;2022-12-07T08:57:51;100905.00;;;24.60
12061;BMP180;6091;51.432;6.880;2022-12-07T09:00:19;100908.00;;;24.70
12061;BMP180;6091;51.432;6.880;2022-12-07T09:02:46;100911.00;;;24.70
12061;BMP180;6091;51.432;6.880;2022-12-07T09:05:14;100905.00;;;24.70
12061;BMP180;6091;51.432;6.880;2022-12-07T09:07:48;100919.00;;;25.10
12061;BMP180;6091;51.432;6.880;2022-12-07T09:10:18;100912.00;;;24.90
12061;BMP180;6091;51.432;6.880;2022-12-07T09:12:45;100912.00;;;24.90
12061;BMP180;6091;51.432;6.880;2022-12-07T09:15:12;100909.00;;;24.90
12061;BMP180;6091;51.432;6.880;2022-12-07T09:17:39;100911.00;;;24.90
12061;BMP180;6091;51.432;6.880;2022-12-07T09:20:06;100907.00;;;24.90
12061;BMP180;6091;51.432;6.880;2022-12-07T09:22:33;100916.00;;;24.90
12061;BMP180;6091;51.432;6.880;2022-12-07T09:25:04;100918.00;;;25.00
12061;BMP180;6091;51.432;6.880;2022-12-07T09:27:31;100918.00;;;25.00
12061;BMP180;6091;51.432;6.880;2022-12-07T09:29:58;100921.00;;;25.10
12061;BMP180;6091;51.432;6.880;2022-12-07T09:32:27;100916.00;;;25.10
12061;BMP180;6091;51.432;6.880;2022-12-07T09:34:54;100923.00;;;25.10
12061;BMP180;6091;51.432;6.880;2022-12-07T09:37:27;100917.00;;;25.10
12061;BMP180;6091;51.432;6.880;2022-12-07T09:39:54;100919.00;;;25.10
12061;BMP180;6091;51.432;6.880;2022-12-07T09:42:28;100912.00;;;25.20
12061;BMP180;6091;51.432;6.880;2022-12-07T09:44:56;100918.00;;;25.20
12061;BMP180;6091;51.432;6.880;2022-12-07T09:47:28;100913.00;;;25.20
12061;BMP180;6091;51.432;6.880;2022-12-07T09:50:29;100894.00;;;25.20
12061;BMP180;6091;51.432;6.880;2022-12-07T09:53:56;100910.00;;;25.20
12061;BMP180;6091;51.432;6.880;2022-12-07T09:56:04;100909.00;;;25.20
12061;BMP180;6091;51.432;6.880;2022-12-07T09:58:33;100908.00;;;25.20
12061;BMP180;6091;51.432;6.880;2022-12-07T10:01:13;100908.00;;;25.30
12061;BMP180;6091;51.432;6.880;2022-12-07T10:03:52;100899.00;;;25.30
12061;BMP180;6091;51.432;6.880;2022-12-07T10:06:20;100896.00;;;25.30
12061;BMP180;6091;51.432;6.880;2022-12-07T10:08:47;100904.00;;;25.30
12061;BMP180;6091;51.432;6.880;2022-12-07T10:11:14;100893.00;;;25.40
12061;BMP180;6091;51.432;6.880;2022-12-07T10:13:51;100895.00;;;25.50
12061;BMP180;6091;51.432;6.880;2022-12-07T10:18:52;100888.00;;;25.70
12061;BMP180;6091;51.432;6.880;2022-12-07T10:21:25;100884.00;;;25.80
12061;BMP180;6091;51.432;6.880;2022-12-07T10:24:14;100888.00;;;26.00
12061;BMP180;6091;51.432;6.880;2022-12-07T10:29:31;100879.00;;;26.50
12061;BMP180;6091;51.432;6.880;2022-12-07T10:32:32;100875.00;;;26.30
12061;BMP180;6091;51.432;6.880;2022-12-07T10:35:29;100876.00;;;26.50
12061;BMP180;6091;51.432;6.880;2022-12-07T10:37:59;100869.00;;;26.40
12061;BMP180;6091;51.432;6.880;2022-12-07T10:40:34;100870.00;;;26.30
12061;BMP180;6091;51.432;6.880;2022-12-07T10:52:44;100858.00;;;26.20
12061;BMP180;6091;51.432;6.880;2022-12-07T10:55:27;100858.00;;;26.20
12061;BMP180;6091;51.432;6.880;2022-12-07T11:06:34;100851.00;;;26.00
12061;BMP180;6091;51.432;6.880;2022-12-07T11:17:58;100844.00;;;25.90
12061;BMP180;6091;51.432;6.880;2022-12-07T11:20:45;100852.00;;;25.80
12061;BMP180;6091;51.432;6.880;2022-12-07T11:26:50;100830.00;;;25.70
12061;BMP180;6091;51.432;6.880;2022-12-07T11:30:22;100822.00;;;25.70
12061;BMP180;6091;51.432;6.880;2022-12-07T11:38:44;100810.00;;;25.70
12061;BMP180;6091;51.432;6.880;2022-12-07T11:41:22;100814.00;;;25.70
12061;BMP180;6091;51.432;6.880;2022-12-07T11:44:27;100803.00;;;25.70
12061;BMP180;6091;51.432;6.880;2022-12-07T11:50:22;100797.00;;;25.70
12061;BMP180;6091;51.432;6.880;2022-12-07T11:53:05;100803.00;;;25.70
12061;BMP180;6091;51.432;6.880;2022-12-07T11:59:18;100794.00;;;25.80
12061;BMP180;6091;51.432;6.880;2022-12-07T12:02:31;100800.00;;;25.80
12061;BMP180;6091;51.432;6.880;2022-12-07T12:07:36;100794.00;;;25.70
12061;BMP180;6091;51.432;6.880;2022-12-07T12:20:13;100787.00;;;25.50
12061;BMP180;6091;51.432;6.880;2022-12-07T12:23:50;100779.00;;;25.50
12061;BMP180;6091;51.432;6.880;2022-12-07T12:26:24;100782.00;;;25.50
12061;BMP180;6091;51.432;6.880;2022-12-07T12:29:00;100781.00;;;25.60
12061;BMP180;6091;51.432;6.880;2022-12-07T12:31:31;100781.00;;;25.60
12061;BMP180;6091;51.432;6.880;2022-12-07T12:34:02;100782.00;;;25.60
12061;BMP180;6091;51.432;6.880;2022-12-07T12:39:19;100774.00;;;25.60
12061;BMP180;6091;51.432;6.880;2022-12-07T12:41:51;100773.00;;;25.60
12061;BMP180;6091;51.432;6.880;2022-12-07T12:44:40;100767.00;;;25.60
12061;BMP180;6091;51.432;6.880;2022-12-07T12:47:52;100772.00;;;25.70
12061;BMP180;6091;51.432;6.880;2022-12-07T12:50:38;100765.00;;;26.00
12061;BMP180;6091;51.432;6.880;2022-12-07T12:53:21;100764.00;;;25.80
12061;BMP180;6091;51.432;6.880;2022-12-07T12:56:27;100755.00;;;25.80
12061;BMP180;6091;51.432;6.880;2022-12-07T12:59:23;100755.00;;;25.80
12061;BMP180;6091;51.432;6.880;2022-12-07T13:18:41;100745.00;;;25.80
12061;BMP180;6091;51.432;6.880;2022-12-07T13:29:14;100750.00;;;26.10
12061;BMP180;6091;51.432;6.880;2022-12-07T13:31:56;100744.00;;;25.90
12061;BMP180;6091;51.432;6.880;2022-12-07T13:34:35;100749.00;;;25.90
12061;BMP180;6091;51.432;6.880;2022-12-07T13:39:52;100725.00;;;25.90
12061;BMP180;6091;51.432;6.880;2022-12-07T13:42:33;100728.00;;;25.90
12061;BMP180;6091;51.432;6.880;2022-12-07T13:45:26;100719.00;;;25.90
12061;BMP180;6091;51.432;6.880;2022-12-07T13:50:56;100719.00;;;25.90
12061;BMP180;6091;51.432;6.880;2022-12-07T13:53:24;100710.00;;;25.90
12061;BMP180;6091;51.432;6.880;2022-12-07T13:55:59;100717.00;;;25.90
12061;BMP180;6091;51.432;6.880;2022-12-07T13:58:31;100707.00;;;25.90
12061;BMP180;6091;51.432;6.880;2022-12-07T14:00:59;100709.00;;;25.80
12061;BMP180;6091;51.432;6.880;2022-12-07T14:03:31;100706.00;;;25.80
12061;BMP180;6091;51.432;6.880;2022-12-07T14:06:26;100708.00;;;25.80
12061;BMP180;6091;51.432;6.880;2022-12-07T14:09:18;100695.00;;;25.80
12061;BMP180;6091;51.432;6.880;2022-12-07T14:11:49;100691.00;;;25.80
12061;BMP180;6091;51.432;6.880;2022-12-07T14:14:30;100693.00;;;25.80
12061;BMP180;6091;51.432;6.880;2022-12-07T14:17:20;100686.00;;;25.80
12061;BMP180;6091;51.432;6.880;2022-12-07T14:20:03;100690.00;;;25.80
12061;BMP180;6091;51.432;6.880;2022-12-07T14:22:34;100699.00;;;25.80
12061;BMP180;6091;51.432;6.880;2022-12-07T14:30:19;100685.00;;;25.80
12061;BMP180;6091;51.432;6.880;2022-12-07T14:32:53;100682.00;;;25.80
12061;BMP180;6091;51.432;6.880;2022-12-07T14:35:20;100686.00;;;25.80
12061;BMP180;6091;51.432;6.880;2022-12-07T14:37:49;100686.00;;;25.80
12061;BMP180;6091;51.432;6.880;2022-12-07T14:40:26;100681.00;;;25.80
12061;BMP180;6091;51.432;6.880;2022-12-07T14:43:01;100672.00;;;25.80
12061;BMP180;6091;51.432;6.880;2022-12-07T14:45:29;100674.00;;;25.80
12061;BMP180;6091;51.432;6.880;2022-12-07T14:47:56;100667.00;;;25.80
12061;BMP180;6091;51.432;6.880;2022-12-07T14:50:52;100665.00;;;25.80
12061;BMP180;6091;51.432;6.880;2022-12-07T14:53:44;100663.00;;;25.80
12061;BMP180;6091;51.432;6.880;2022-12-07T14:56:19;100669.00;;;25.80
12061;BMP180;6091;51.432;6.880;2022-12-07T14:58:46;100668.00;;;25.70
12061;BMP180;6091;51.432;6.880;2022-12-07T15:01:17;100661.00;;;25.70
12061;BMP180;6091;51.432;6.880;2022-12-07T15:03:44;100660.00;;;25.70
12061;BMP180;6091;51.432;6.880;2022-12-07T15:06:15;100655.00;;;25.70
12061;BMP180;6091;51.432;6.880;2022-12-07T15:08:45;100656.00;;;25.70
12061;BMP180;6091;51.432;6.880;2022-12-07T15:11:18;100663.00;;;25.70
12061;BMP180;6091;51.432;6.880;2022-12-07T15:13:45;100675.00;;;25.60
12061;BMP180;6091;51.432;6.880;2022-12-07T15:16:31;100670.00;;;25.60
12061;BMP180;6091;51.432;6.880;2022-12-07T15:19:21;100655.00;;;25.60
12061;BMP180;6091;51.432;6.880;2022-12-07T15:21:57;100661.00;;;25.60
12061;BMP180;6091;51.432;6.880;2022-12-07T15:24:25;100657.00;;;25.60
12061;BMP180;6091;51.432;6.880;2022-12-07T15:26:52;100658.00;;;25.60
12061;BMP180;6091;51.432;6.880;2022-12-07T15:29:20;100660.00;;;25.60
12061;BMP180;6091;51.432;6.880;2022-12-07T15:31:52;100652.00;;;25.60
12061;BMP180;6091;51.432;6.880;2022-12-07T15:34:27;100659.00;;;25.50
12061;BMP180;6091;51.432;6.880;2022-12-07T15:37:05;100658.00;;;25.50
12061;BMP180;6091;51.432;6.880;2022-12-07T15:39:32;100652.00;;;25.50
12061;BMP180;6091;51.432;6.880;2022-12-07T15:41:59;100652.00;;;25.50
12061;BMP180;6091;51.432;6.880;2022-12-07T15:44:26;100647.00;;;25.50
12061;BMP180;6091;51.432;6.880;2022-12-07T15:47:12;100650.00;;;25.50
12061;BMP180;6091;51.432;6.880;2022-12-07T15:49:39;100643.00;;;25.50
12061;BMP180;6091;51.432;6.880;2022-12-07T15:52:06;100653.00;;;25.50
12061;BMP180;6091;51.432;6.880;2022-12-07T15:54:33;100655.00;;;25.50
12061;BMP180;6091;51.432;6.880;2022-12-07T15:57:00;100650.00;;;25.50
12061;BMP180;6091;51.432;6.880;2022-12-07T15:59:28;100655.00;;;25.50
12061;BMP180;6091;51.432;6.880;2022-12-07T16:01:56;100646.00;;;25.50
12061;BMP180;6091;51.432;6.880;2022-12-07T16:04:23;100638.00;;;25.50
12061;BMP180;6091;51.432;6.880;2022-12-07T16:06:50;100639.00;;;25.50
12061;BMP180;6091;51.432;6.880;2022-12-07T16:09:18;100632.00;;;25.50
12061;BMP180;6091;51.432;6.880;2022-12-07T16:11:45;100639.00;;;25.50
12061;BMP180;6091;51.432;6.880;2022-12-07T16:14:13;100648.00;;;25.50
12061;BMP180;6091;51.432;6.880;2022-12-07T16:16:40;100636.00;;;25.50
12061;BMP180;6091;51.432;6.880;2022-12-07T16:19:09;100619.00;;;25.50
12061;BMP180;6091;51.432;6.880;2022-12-07T16:21:40;100636.00;;;25.50
12061;BMP180;6091;51.432;6.880;2022-12-07T16:24:08;100637.00;;;25.50
12061;BMP180;6091;51.432;6.880;2022-12-07T16:26:37;100631.00;;;25.50
12061;BMP180;6091;51.432;6.880;2022-12-07T16:29:04;100623.00;;;25.50
12061;BMP180;6091;51.432;6.880;2022-12-07T16:31:31;100621.00;;;25.50
12061;BMP180;6091;51.432;6.880;2022-12-07T16:33:58;100626.00;;;25.50
12061;BMP180;6091;51.432;6.880;2022-12-07T16:36:26;100636.00;;;25.50
12061;BMP180;6091;51.432;6.880;2022-12-07T16:39:14;100629.00;;;25.50
12061;BMP180;6091;51.432;6.880;2022-12-07T16:41:41;100629.00;;;25.50
12061;BMP180;6091;51.432;6.880;2022-12-07T16:44:12;100631.00;;;25.50
12061;BMP180;6091;51.432;6.880;2022-12-07T16:46:40;100633.00;;;25.50
12061;BMP180;6091;51.432;6.880;2022-12-07T16:49:12;100623.00;;;25.50
12061;BMP180;6091;51.432;6.880;2022-12-07T16:51:40;100607.00;;;25.50
12061;BMP180;6091;51.432;6.880;2022-12-07T16:54:12;100611.00;;;25.50
12061;BMP180;6091;51.432;6.880;2022-12-07T16:56:39;100616.00;;;25.50
12061;BMP180;6091;51.432;6.880;2022-12-07T16:59:07;100612.00;;;25.50
12061;BMP180;6091;51.432;6.880;2022-12-07T17:01:35;100607.00;;;25.50
12061;BMP180;6091;51.432;6.880;2022-12-07T17:04:02;100604.00;;;25.50